createdAt,value
2022-11-23T00:02:19.496Z,84.64
2022-11-23T00:06:04.420Z,85.75
2022-11-23T00:09:47.107Z,86.17
2022-11-23T00:13:29.906Z,86.33
2022-11-23T00:17:12.584Z,86.34
2022-11-23T00:20:55.236Z,86.64
2022-11-23T00:24:39.267Z,86.51
2022-11-23T00:28:21.957Z,87.26
2022-11-23T00:32:05.011Z,87.78
2022-11-23T00:35:48.042Z,86.94
2022-11-23T00:39:30.876Z,85.89
2022-11-23T00:43:15.075Z,85.18
2022-11-23T00:46:57.805Z,84.91
2022-11-23T00:50:40.424Z,85.38
2022-11-23T00:54:23.079Z,85.25
2022-11-23T00:58:05.854Z,85.83
2022-11-23T01:01:50.183Z,85.53
2022-11-23T01:05:37.285Z,85.55
2022-11-23T01:09:24.938Z,85.82
2022-11-23T01:13:07.671Z,86.04
2022-11-23T01:16:51.916Z,86.29
2022-11-23T01:20:35.915Z,86.37
2022-11-23T01:24:20.250Z,85.93
2022-11-23T01:28:02.934Z,86.49
2022-11-23T01:31:47.000Z,86.86
2022-11-23T01:35:31.224Z,86.73
2022-11-23T01:39:14.222Z,86.29
2022-11-23T01:42:58.234Z,86.33
2022-11-23T01:46:40.947Z,86.29
2022-11-23T01:50:23.559Z,86.24
2022-11-23T01:54:10.451Z,86.10
2022-11-23T01:57:53.182Z,86.53
2022-11-23T02:01:35.983Z,86.71
2022-11-23T02:05:20.129Z,86.51
2022-11-23T02:09:03.214Z,87.12
2022-11-23T02:12:47.320Z,86.95
2022-11-23T02:16:30.484Z,86.85
2022-11-23T02:20:17.689Z,87.43
2022-11-23T02:24:02.990Z,86.90
2022-11-23T02:27:47.331Z,86.93
2022-11-23T02:31:30.217Z,87.46
2022-11-23T02:35:13.462Z,87.27
2022-11-23T02:38:56.358Z,87.53
2022-11-23T02:42:39.045Z,87.80
2022-11-23T02:46:23.110Z,87.74
2022-11-23T02:50:06.422Z,88.38
2022-11-23T02:53:52.094Z,88.71
2022-11-23T02:57:34.742Z,88.74
2022-11-23T03:01:17.553Z,88.94
2022-11-23T03:05:01.693Z,89.49
2022-11-23T03:08:44.375Z,89.73
2022-11-23T03:12:27.097Z,89.79
2022-11-23T03:16:10.459Z,89.63
2022-11-23T03:19:53.138Z,89.95
2022-11-23T03:23:37.908Z,90.43
2022-11-23T03:27:20.520Z,90.03
2022-11-23T03:31:03.212Z,90.66
2022-11-23T03:34:45.905Z,90.85
2022-11-23T03:38:28.742Z,89.88
2022-11-23T03:42:12.725Z,89.80
2022-11-23T03:45:55.373Z,90.00
2022-11-23T03:49:40.394Z,90.30
2022-11-23T03:53:23.015Z,90.07
2022-11-23T03:57:05.646Z,90.06
2022-11-23T04:00:49.746Z,89.28
2022-11-23T04:04:32.581Z,88.87
2022-11-23T04:08:15.233Z,88.93
2022-11-23T04:11:57.866Z,88.56
2022-11-23T04:15:40.544Z,88.32
2022-11-23T04:19:24.676Z,88.73
2022-11-23T04:23:12.836Z,88.96
2022-11-23T04:26:56.363Z,88.97
2022-11-23T04:30:38.978Z,89.34
2022-11-23T04:34:21.782Z,89.26
2022-11-23T04:38:05.815Z,88.64
2022-11-23T04:41:48.460Z,89.08
2022-11-23T04:45:31.105Z,89.52
2022-11-23T04:49:13.874Z,89.74
2022-11-23T04:52:56.486Z,89.17
2022-11-23T04:56:40.440Z,89.73
2022-11-23T05:00:23.186Z,89.33
2022-11-23T05:04:06.313Z,89.51
2022-11-23T05:07:49.039Z,90.02
2022-11-23T05:11:31.755Z,89.85
2022-11-23T05:15:15.842Z,89.38
2022-11-23T05:18:58.561Z,88.92
2022-11-23T05:22:41.344Z,87.86
2022-11-23T05:26:24.030Z,87.87
2022-11-23T05:30:07.801Z,87.81
2022-11-23T05:33:51.745Z,87.98
2022-11-23T05:37:34.743Z,87.47
2022-11-23T05:41:17.346Z,87.64
2022-11-23T05:45:00.010Z,88.06
2022-11-23T05:48:42.715Z,88.13
2022-11-23T05:52:27.376Z,86.93
2022-11-23T05:56:10.026Z,86.96
2022-11-23T05:59:52.981Z,87.07
2022-11-23T06:03:35.626Z,87.39
2022-11-23T06:07:18.347Z,87.65
2022-11-23T06:11:02.959Z,87.73
2022-11-23T06:14:45.582Z,87.52
2022-11-23T06:18:28.244Z,87.65
2022-11-23T06:22:10.870Z,87.81
2022-11-23T06:25:53.510Z,87.86
2022-11-23T06:29:37.486Z,87.46
2022-11-23T06:33:20.117Z,86.65
2022-11-23T06:37:02.924Z,86.51
2022-11-23T06:40:45.569Z,87.17
2022-11-23T06:44:28.245Z,87.14
2022-11-23T06:48:12.298Z,87.24
2022-11-23T06:51:54.913Z,86.73
2022-11-23T06:55:37.582Z,86.23
2022-11-23T06:59:20.335Z,86.42
2022-11-23T07:03:03.165Z,86.11
2022-11-23T07:06:47.147Z,85.88
2022-11-23T07:10:29.824Z,85.42
2022-11-23T07:14:12.625Z,85.20
2022-11-23T07:17:55.378Z,84.84
2022-11-23T07:21:38.046Z,84.86
2022-11-23T07:25:22.031Z,84.45
2022-11-23T07:29:04.675Z,83.80
2022-11-23T07:32:47.309Z,83.38
2022-11-23T07:36:32.730Z,83.17
2022-11-23T07:40:17.723Z,82.48
2022-11-23T07:44:01.695Z,82.01
2022-11-23T07:47:44.380Z,82.53
2022-11-23T07:51:27.015Z,81.76
2022-11-23T07:55:10.470Z,81.18
2022-11-23T07:58:53.093Z,89.57
2022-11-23T08:02:37.312Z,80.44
2022-11-23T08:06:19.947Z,72.90
2022-11-23T08:10:02.616Z,72.91
2022-11-23T08:13:45.350Z,73.70
2022-11-23T08:17:28.004Z,74.93
2022-11-23T08:21:12.002Z,75.79
2022-11-23T08:24:54.650Z,76.62
2022-11-23T08:28:38.364Z,76.44
2022-11-23T08:32:20.964Z,76.98
2022-11-23T08:36:05.470Z,76.48
2022-11-23T08:39:49.549Z,76.05
2022-11-23T08:43:32.667Z,75.63
2022-11-23T08:47:15.254Z,74.88
2022-11-23T08:51:00.729Z,74.69
2022-11-23T08:54:43.402Z,74.11
2022-11-23T08:58:27.431Z,74.62
2022-11-23T09:02:11.396Z,74.32
2022-11-23T09:05:54.612Z,74.00
2022-11-23T09:09:37.266Z,74.13
2022-11-23T09:13:19.929Z,74.28
2022-11-23T09:17:04.623Z,73.49
2022-11-23T09:20:47.258Z,73.48
2022-11-23T09:24:30.067Z,73.71
2022-11-23T09:28:14.813Z,73.84
2022-11-23T09:31:57.464Z,73.06
2022-11-23T09:35:43.956Z,73.29
2022-11-23T09:39:26.923Z,74.11
2022-11-23T09:43:32.988Z,73.62
2022-11-23T09:47:28.345Z,72.10
2022-11-23T09:51:16.091Z,71.54
2022-11-23T09:55:05.363Z,71.22
2022-11-23T09:58:48.221Z,71.28
2022-11-23T10:02:32.031Z,69.13
2022-11-23T10:06:20.696Z,68.86
2022-11-23T10:10:11.308Z,69.67
2022-11-23T10:13:58.871Z,69.81
2022-11-23T10:18:04.596Z,68.77
2022-11-23T10:21:53.772Z,68.61
2022-11-23T10:25:42.609Z,69.02
2022-11-23T10:29:29.692Z,67.89
2022-11-23T10:33:19.380Z,64.57
2022-11-23T10:37:04.211Z,64.03
2022-11-23T10:41:01.656Z,65.11
2022-11-23T10:44:47.104Z,65.80
2022-11-23T10:48:35.486Z,65.93
2022-11-23T10:52:33.436Z,65.93
2022-11-23T10:56:16.138Z,68.15
2022-11-23T11:00:00.345Z,68.14
2022-11-23T11:03:43.665Z,66.20
2022-11-23T11:07:31.041Z,64.63
2022-11-23T11:11:23.758Z,65.43
2022-11-23T11:15:18.157Z,64.53
2022-11-23T11:19:01.567Z,62.92
2022-11-23T11:22:47.905Z,64.11
2022-11-23T11:26:32.213Z,64.33
2022-11-23T11:30:23.873Z,63.59
2022-11-23T11:34:15.625Z,62.41
2022-11-23T11:38:03.876Z,63.60
2022-11-23T11:41:46.790Z,63.58
2022-11-23T11:45:34.142Z,62.74
2022-11-23T11:49:20.240Z,62.31
2022-11-23T11:53:07.250Z,62.72
2022-11-23T11:56:52.002Z,61.30
2022-11-23T12:00:35.679Z,61.09
2022-11-23T12:04:21.334Z,60.03
2022-11-23T12:08:12.658Z,57.37
2022-11-23T12:11:58.015Z,57.96
2022-11-23T12:15:50.689Z,57.19
2022-11-23T12:19:37.543Z,58.31
2022-11-23T12:23:30.697Z,56.57
2022-11-23T12:27:21.235Z,56.45
2022-11-23T12:31:09.474Z,55.04
2022-11-23T12:35:21.997Z,55.16
2022-11-23T12:39:11.165Z,56.11
2022-11-23T12:43:00.258Z,55.37
2022-11-23T12:46:47.604Z,55.84
2022-11-23T12:50:36.340Z,53.32
2022-11-23T12:54:38.914Z,54.49
2022-11-23T12:58:24.441Z,54.94
2022-11-23T13:02:15.061Z,54.81
2022-11-23T13:06:37.550Z,54.69
2022-11-23T13:10:29.014Z,54.77
2022-11-23T13:14:20.096Z,55.07
2022-11-23T13:18:09.776Z,53.65
2022-11-23T13:21:52.685Z,52.30
2022-11-23T13:25:40.150Z,51.23
2022-11-23T13:29:48.471Z,49.99
2022-11-23T13:33:38.727Z,49.14
2022-11-23T13:37:24.185Z,44.72
2022-11-23T13:41:40.168Z,43.95
2022-11-23T13:45:29.577Z,52.08
2022-11-23T13:49:30.675Z,42.62
2022-11-23T13:53:23.022Z,41.73
2022-11-23T13:57:12.935Z,40.19
2022-11-23T14:00:58.378Z,40.99
2022-11-23T14:04:42.444Z,42.02
2022-11-23T14:08:26.039Z,43.24
2022-11-23T14:12:18.730Z,43.42
2022-11-23T14:16:04.698Z,43.78
2022-11-23T14:20:02.771Z,43.93
2022-11-23T14:23:58.507Z,43.70
2022-11-23T14:27:48.573Z,44.13
2022-11-23T14:31:39.188Z,45.70
2022-11-23T14:35:27.012Z,45.27
2022-11-23T14:39:39.594Z,46.03
2022-11-23T14:43:22.325Z,47.66
2022-11-23T14:47:10.790Z,48.18
2022-11-23T14:50:57.882Z,48.59
2022-11-23T14:54:40.593Z,49.17
2022-11-23T14:58:25.390Z,49.43
2022-11-23T15:02:16.877Z,49.97
2022-11-23T15:06:07.865Z,50.53
2022-11-23T15:09:52.522Z,51.01
2022-11-23T15:13:44.117Z,51.23
2022-11-23T15:17:29.246Z,51.76
2022-11-23T15:21:22.570Z,52.80
2022-11-23T15:25:10.025Z,53.32
2022-11-23T15:28:53.157Z,54.37
2022-11-23T15:32:37.290Z,55.92
2022-11-23T15:36:24.361Z,59.30
2022-11-23T15:40:12.779Z,56.87
2022-11-23T15:43:58.980Z,56.93
2022-11-23T15:47:43.058Z,57.94
2022-11-23T15:51:27.986Z,58.90
2022-11-23T15:55:15.204Z,60.02
2022-11-23T15:58:58.639Z,60.91
2022-11-23T16:02:44.582Z,61.64
2022-11-23T16:06:38.259Z,62.19
2022-11-23T16:10:22.631Z,62.90
2022-11-23T16:14:16.331Z,63.86
2022-11-23T16:18:00.658Z,64.82
2022-11-23T16:21:45.659Z,65.73
2022-11-23T16:25:29.889Z,66.79
2022-11-23T16:29:21.980Z,66.87
2022-11-23T16:33:06.622Z,66.84
2022-11-23T16:36:49.311Z,67.53
2022-11-23T16:40:32.025Z,67.35
2022-11-23T16:44:14.756Z,67.66
2022-11-23T16:48:00.049Z,68.54
2022-11-23T16:51:44.190Z,69.19
2022-11-23T16:55:26.833Z,69.08
2022-11-23T16:59:16.373Z,69.32
2022-11-23T17:02:59.338Z,70.03
2022-11-23T17:06:42.816Z,72.28
2022-11-23T17:10:27.066Z,79.26
2022-11-23T17:14:16.328Z,69.99
2022-11-23T17:18:03.755Z,67.48
2022-11-23T17:21:46.503Z,67.50
2022-11-23T17:25:30.931Z,70.34
2022-11-23T17:29:14.862Z,72.32
2022-11-23T17:32:57.673Z,73.82
2022-11-23T17:36:40.798Z,74.10
2022-11-23T17:40:24.587Z,73.05
2022-11-23T17:44:10.421Z,70.12
2022-11-23T17:47:53.389Z,70.83
2022-11-23T17:51:36.106Z,72.20
2022-11-23T17:55:19.201Z,72.00
2022-11-23T17:59:02.056Z,72.29
2022-11-23T18:02:49.164Z,72.67
2022-11-23T18:06:31.948Z,72.82
2022-11-23T18:10:14.638Z,72.81
2022-11-23T18:13:57.264Z,73.46
2022-11-23T18:17:40.251Z,73.78
2022-11-23T18:21:24.546Z,73.04
2022-11-23T18:25:07.935Z,73.81
2022-11-23T18:28:51.103Z,73.76
2022-11-23T18:32:33.836Z,73.49
2022-11-23T18:36:16.627Z,72.97
2022-11-23T18:40:00.699Z,73.14
2022-11-23T18:43:43.415Z,73.39
2022-11-23T18:47:26.079Z,73.61
2022-11-23T18:51:11.772Z,74.20
2022-11-23T18:54:54.538Z,73.95
2022-11-23T18:58:39.704Z,73.56
2022-11-23T19:02:22.338Z,80.63
2022-11-23T19:06:05.736Z,75.77
2022-11-23T19:09:48.399Z,73.05
2022-11-23T19:13:33.612Z,72.41
2022-11-23T19:17:17.731Z,71.53
2022-11-23T19:21:00.539Z,70.99
2022-11-23T19:24:43.176Z,71.20
2022-11-23T19:28:26.091Z,71.56
2022-11-23T19:32:08.801Z,71.50
2022-11-23T19:35:52.893Z,70.90
2022-11-23T19:39:36.209Z,71.37
2022-11-23T19:43:19.298Z,71.46
2022-11-23T19:47:03.793Z,71.33
2022-11-23T19:51:00.152Z,71.27
2022-11-23T19:54:45.901Z,71.89
2022-11-23T19:58:31.045Z,71.79
2022-11-23T20:02:22.167Z,72.14
2022-11-23T20:06:09.966Z,73.39
2022-11-23T20:09:53.409Z,73.56
2022-11-23T20:13:36.691Z,73.30
2022-11-23T20:17:19.404Z,73.99
2022-11-23T20:21:02.198Z,75.45
2022-11-23T20:24:46.327Z,76.78
2022-11-23T20:28:29.237Z,76.56
2022-11-23T20:32:12.704Z,77.10
2022-11-23T20:35:57.194Z,77.49
2022-11-23T20:39:43.699Z,78.06
2022-11-23T20:43:27.778Z,79.35
2022-11-23T20:47:10.499Z,80.39
2022-11-23T20:50:53.265Z,80.88
2022-11-23T20:54:36.658Z,81.74
2022-11-23T20:58:20.926Z,81.53
2022-11-23T21:02:04.993Z,82.62
2022-11-23T21:05:47.750Z,88.42
2022-11-23T21:09:33.145Z,83.66
2022-11-23T21:13:48.486Z,81.73
2022-11-23T21:17:33.548Z,84.64
2022-11-23T21:21:16.593Z,85.29
2022-11-23T21:24:59.455Z,86.37
2022-11-23T21:28:43.305Z,87.50
2022-11-23T21:32:26.240Z,87.18
2022-11-23T21:36:13.101Z,87.12
2022-11-23T21:39:55.844Z,87.71
2022-11-23T21:43:40.862Z,88.09
2022-11-23T21:47:26.319Z,87.17
2022-11-23T21:51:13.065Z,87.75
2022-11-23T21:54:55.928Z,88.69
2022-11-23T21:58:38.935Z,89.75
2022-11-23T22:02:21.812Z,90.45
2022-11-23T22:06:04.991Z,91.54
2022-11-23T22:09:49.119Z,91.85
2022-11-23T22:13:36.751Z,93.17
2022-11-23T22:17:20.179Z,100.00
2022-11-23T22:21:07.233Z,92.77
2022-11-23T22:24:52.460Z,92.89
2022-11-23T22:28:36.462Z,94.05
2022-11-23T22:32:29.042Z,94.33
2022-11-23T22:36:22.140Z,95.61
2022-11-23T22:40:10.824Z,96.41
2022-11-23T22:43:59.684Z,97.00
2022-11-23T22:47:42.505Z,96.90
2022-11-23T22:51:27.007Z,95.92
2022-11-23T22:55:11.905Z,95.24
2022-11-23T22:58:57.942Z,94.86
2022-11-23T23:02:40.921Z,92.95
2022-11-23T23:06:25.032Z,91.97
2022-11-23T23:10:12.720Z,90.52
2022-11-23T23:13:55.891Z,91.31
2022-11-23T23:17:39.140Z,89.90
2022-11-23T23:21:24.338Z,89.04
2022-11-23T23:25:08.387Z,88.80
2022-11-23T23:28:54.603Z,88.04
2022-11-23T23:32:39.988Z,87.70
2022-11-23T23:36:24.370Z,86.90
2022-11-23T23:40:12.637Z,86.92
2022-11-23T23:43:57.022Z,85.99
2022-11-23T23:47:39.952Z,85.02
2022-11-23T23:51:25.343Z,85.19
2022-11-23T23:55:10.767Z,84.87
2022-11-23T23:58:53.896Z,85.04
